Yichun, China
Current Conditions -  °F | °C
As of 5:00 AM on Saturday 29 Nov 2014 (Local Time) from ZGHA Reporting Station
Drizzle Drizzle  
Wind Chill: 52°   Ceiling: 300
Heat Index: 52°   Visibility: 0.87mi
Dew Point: 50°   Wind: 7mph
Humidity: 94%   Direction: 320°NW
Pressure: 29.97"   Gusts: NA
Location:  27.79°N, 114.37°E
Report Text: ZGHA 282100Z 32003MPS 1400 R36/P2000 -DZ BR SCT002BKN003OVC050 11/10 Q1015 NOSIG
Loading
Personal Weather Stations






























Interactive Weather Map New forecast layout! Learn more

10-Day Weather Forecast

Advertisements
Track Severe Weather on mobile